createdAt,value
2019-06-07T17:11:32.942Z,1.70
2019-06-07T17:14:02.121Z,1.80
2019-06-07T17:16:35.050Z,2.03
2019-06-07T17:19:03.890Z,1.60
2019-06-07T17:21:32.835Z,2.43
2019-06-07T17:24:01.807Z,2.27
2019-06-07T17:26:30.591Z,2.17
2019-06-07T17:28:59.461Z,2.33
2019-06-07T17:31:28.276Z,2.13
2019-06-07T17:33:57.101Z,4.90
2019-06-07T17:36:25.867Z,2.47
2019-06-07T17:38:54.686Z,2.17
2019-06-07T17:41:23.545Z,2.50
2019-06-07T17:44:00.010Z,2.20
2019-06-07T17:46:23.005Z,2.70
2019-06-07T17:48:51.790Z,2.83
2019-06-07T17:51:20.592Z,2.67
2019-06-07T17:53:49.944Z,3.40
2019-06-07T17:56:20.263Z,3.07
2019-06-07T17:58:50.459Z,2.23
2019-06-07T18:01:19.372Z,2.23
2019-06-07T18:03:49.173Z,2.50
2019-06-07T18:06:19.484Z,2.53
2019-06-07T18:08:49.547Z,2.30
2019-06-07T18:11:18.440Z,2.00
2019-06-07T18:13:48.238Z,2.30
2019-06-07T18:16:18.476Z,2.03
2019-06-07T18:18:48.537Z,1.63
2019-06-07T18:21:17.392Z,1.70
2019-06-07T18:23:46.331Z,1.53
2019-06-07T18:26:15.202Z,1.50
2019-06-07T18:28:44.358Z,1.70
2019-06-07T18:31:13.398Z,1.27
2019-06-07T18:33:42.242Z,1.37
2019-06-07T18:36:11.051Z,1.40
2019-06-07T18:38:41.284Z,1.60
2019-06-07T18:41:10.858Z,1.23
2019-06-07T18:43:39.719Z,1.40
2019-06-07T18:46:08.644Z,1.17
2019-06-07T18:48:37.619Z,2.07
2019-06-07T18:51:06.607Z,2.27
2019-06-07T18:53:35.430Z,1.80
2019-06-07T18:56:05.194Z,1.17
2019-06-07T18:58:34.128Z,1.27
2019-06-07T19:01:02.953Z,1.30
2019-06-07T19:03:31.844Z,1.40
2019-06-07T19:06:03.688Z,1.73
2019-06-07T19:08:32.558Z,1.00
2019-06-07T19:11:01.502Z,1.20
2019-06-07T19:13:30.378Z,1.23
2019-06-07T19:15:59.653Z,1.27
2019-06-07T19:18:28.500Z,1.17
2019-06-07T19:20:58.559Z,1.17
2019-06-07T19:23:27.473Z,1.17
2019-06-07T19:25:56.434Z,0.90
2019-06-07T19:28:25.447Z,0.87
2019-06-07T19:30:59.163Z,1.10
2019-06-07T19:33:28.027Z,1.07
2019-06-07T19:35:57.467Z,0.90
2019-06-07T19:38:26.344Z,1.17
2019-06-07T19:40:55.870Z,1.00
2019-06-07T19:43:24.807Z,1.00
2019-06-07T19:45:54.065Z,0.70
2019-06-07T19:48:30.409Z,1.00
2019-06-07T19:50:59.221Z,0.60
2019-06-07T19:53:28.062Z,0.70
2019-06-07T19:55:57.114Z,0.70
2019-06-07T19:58:25.995Z,0.80
2019-06-07T20:00:55.523Z,0.90
2019-06-07T20:03:26.135Z,0.75
2019-06-07T20:05:58.037Z,0.65
2019-06-07T20:08:25.540Z,0.77
2019-06-07T20:10:54.490Z,0.93
2019-06-07T20:13:23.312Z,0.80
2019-06-07T20:15:52.078Z,1.10
2019-06-07T20:18:21.119Z,0.73
2019-06-07T20:20:49.958Z,0.90
2019-06-07T20:23:18.718Z,0.72
2019-06-07T20:25:47.622Z,0.90
2019-06-07T20:28:16.379Z,1.00
2019-06-07T20:30:45.470Z,0.80
2019-06-07T20:33:14.254Z,0.90
2019-06-07T20:35:43.088Z,0.90
2019-06-07T20:38:13.762Z,1.00
2019-06-07T20:40:42.581Z,0.90
2019-06-07T20:43:11.402Z,0.80
2019-06-07T20:45:40.186Z,0.93
2019-06-07T20:48:09.171Z,0.60
2019-06-07T20:50:38.069Z,1.10
2019-06-07T20:53:07.250Z,1.17
2019-06-07T20:55:36.814Z,0.73
2019-06-07T20:58:05.623Z,0.80
2019-06-07T21:00:34.529Z,0.60
2019-06-07T21:03:05.330Z,0.83
2019-06-07T21:05:34.435Z,0.63
2019-06-07T21:08:04.141Z,0.93
2019-06-07T21:10:33.752Z,0.70
2019-06-07T21:13:03.794Z,0.97
2019-06-07T21:15:47.648Z,0.60
2019-06-07T21:18:04.822Z,0.87
2019-06-07T21:20:34.110Z,0.90
2019-06-07T21:23:03.121Z,0.70
2019-06-07T21:25:32.057Z,0.60
2019-06-07T21:28:00.983Z,0.80
2019-06-07T21:30:29.846Z,0.80
2019-06-07T21:32:58.669Z,0.70
2019-06-07T21:35:27.509Z,0.77
2019-06-07T21:37:56.403Z,1.00
2019-06-07T21:40:25.212Z,0.87
2019-06-07T21:42:54.029Z,0.70
2019-06-07T21:45:22.932Z,0.70
2019-06-07T21:47:51.880Z,1.00
2019-06-07T21:50:21.104Z,0.82
2019-06-07T21:52:50.018Z,0.87
2019-06-07T21:55:18.925Z,0.70
2019-06-07T21:57:47.806Z,1.10
2019-06-07T22:00:31.170Z,0.80
2019-06-07T22:03:00.016Z,0.43
2019-06-07T22:05:28.873Z,0.60
2019-06-07T22:07:57.722Z,1.20
2019-06-07T22:10:26.627Z,0.70
2019-06-07T22:12:55.400Z,1.02
2019-06-07T22:15:33.329Z,0.90
2019-06-07T22:17:57.091Z,0.60
2019-06-07T22:20:25.947Z,0.90
2019-06-07T22:22:55.021Z,0.60
2019-06-07T22:25:24.075Z,0.70
2019-06-07T22:27:53.288Z,0.90
2019-06-07T22:30:22.119Z,0.88
2019-06-07T22:32:51.752Z,0.53
2019-06-07T22:35:20.776Z,0.70
2019-06-07T22:37:49.558Z,0.70
2019-06-07T22:40:18.695Z,0.70
2019-06-07T22:42:47.509Z,0.60
2019-06-07T22:45:17.099Z,0.70
2019-06-07T22:47:45.955Z,0.63
2019-06-07T22:50:16.309Z,1.10
2019-06-07T22:52:45.306Z,0.60
2019-06-07T22:55:14.348Z,0.60
2019-06-07T22:57:56.584Z,1.07
2019-06-07T23:00:27.202Z,1.20
2019-06-07T23:02:56.499Z,1.00
2019-06-07T23:05:25.342Z,0.77
2019-06-07T23:07:54.142Z,0.50
2019-06-07T23:10:22.996Z,0.90
2019-06-07T23:12:51.997Z,0.75
2019-06-07T23:15:21.088Z,0.60
2019-06-07T23:17:49.886Z,0.63
2019-06-07T23:20:20.157Z,0.90
2019-06-07T23:22:49.068Z,0.73
2019-06-07T23:25:22.122Z,0.93
2019-06-07T23:27:48.899Z,0.60
2019-06-07T23:30:18.746Z,1.17
2019-06-07T23:32:47.767Z,1.67
2019-06-07T23:35:17.382Z,1.42
2019-06-07T23:37:46.319Z,1.12
2019-06-07T23:40:15.506Z,0.93
2019-06-07T23:42:44.282Z,0.83
2019-06-07T23:45:13.801Z,0.73
2019-06-07T23:47:42.835Z,0.80
2019-06-07T23:50:11.838Z,0.90
2019-06-07T23:52:40.616Z,0.87
2019-06-07T23:55:09.648Z,0.80
2019-06-07T23:57:38.490Z,0.60
